KGCK/GCK METAR and TAF weather

Enter ICAO airport designator
Station Type Date Time Source
KGCK METAR 2018/12/19 08:54 UTC NOAA

KGCK 190854Z AUTO 29006KT 10SM CLR M02/M06 A2979 RMK AO2 SLP092 T10171056 56012


Station Type Date Time Source
KGCK Decoded METAR 2018/12/19 08:54 UTC NOAA

GARDEN CITY REGIONAL AIRPORT, KS, United States (KGCK) 37-55N 100-43W 877M
Dec 19, 2018 - 03:54 AM EST / 2018.12.19 0854 UTC
Wind: from the WNW (290 degrees) at 7 MPH (6 KT):0
Visibility: 10 mile(s):0
Sky conditions: clear
Temperature: 28.9 F (-1.7 C)
Windchill: 21 F (-6 C):1
Dew Point: 21.9 F (-5.6 C)
Relative Humidity: 74%
Pressure (altimeter): 29.79 in. Hg (1008 hPa)
Pressure tendency: 0.04 inches (1.2 hPa) lower than three hours ago
ob: KGCK 190854Z AUTO 29006KT 10SM CLR M02/M06 A2979 RMK AO2 SLP092 T10171056 56012
cycle: 9

Station Type Date Time Source
KGCK TAF 2018/12/19 06:24 UTC NOAA

TAF KGCK 190521Z 1906/2006 26006KT P6SM SCT250
FM191200 29012KT P6SM BKN200
FM191700 32025G35KT P6SM BKN130
FM200000 34016KT P6SM BKN130


Example: see airport list